createdAt,value
2019-04-01T00:02:17.033Z,100235.00
2019-04-01T00:13:01.128Z,100284.00
2019-04-01T00:23:38.025Z,100302.00
2019-04-01T00:34:21.427Z,100334.00
2019-04-01T00:45:05.806Z,100363.00
2019-04-01T00:55:43.904Z,100387.00
2019-04-01T01:06:26.466Z,100411.00
2019-04-01T01:17:12.490Z,100440.00
2019-04-01T01:27:44.882Z,100456.00
2019-04-01T01:38:28.873Z,100476.00
2019-04-01T01:49:06.788Z,100486.00
2019-04-01T01:59:44.818Z,100533.00
2019-04-01T02:10:28.221Z,100565.00
2019-04-01T02:21:09.094Z,100567.00
2019-04-01T02:31:52.412Z,100596.00
2019-04-01T02:42:41.319Z,100598.00
2019-04-01T02:53:08.524Z,100603.00
2019-04-01T03:03:49.480Z,100618.00
2019-04-01T03:14:32.222Z,100641.00
2019-04-01T03:25:14.173Z,100664.00
2019-04-01T03:35:58.819Z,100687.00
2019-04-01T03:46:38.777Z,100708.00
2019-04-01T03:57:17.100Z,100705.00
2019-04-01T04:07:59.114Z,100727.00
2019-04-01T04:18:43.751Z,100754.00
2019-04-01T04:29:27.128Z,100764.00
2019-04-01T04:40:12.616Z,100773.00
2019-04-01T04:50:56.443Z,100783.00
2019-04-01T05:01:39.188Z,100805.00
2019-04-01T05:12:22.340Z,100807.00
2019-04-01T05:23:07.296Z,100826.00
2019-04-01T05:33:55.603Z,100831.00
2019-04-01T05:44:32.680Z,100826.00
2019-04-01T05:55:14.123Z,100833.00
2019-04-01T06:05:58.024Z,100789.00
2019-04-01T06:16:43.135Z,100144.00
2019-04-01T06:27:30.050Z,100185.00
2019-04-01T06:38:13.543Z,100460.00
2019-04-01T06:48:54.511Z,100490.00
2019-04-01T06:59:31.246Z,100441.00
2019-04-01T07:10:14.517Z,100396.00
2019-04-01T07:20:57.294Z,100344.00
2019-04-01T07:31:43.589Z,100263.00
2019-04-01T07:42:26.231Z,100177.00
2019-04-01T07:53:10.101Z,100080.00
2019-04-01T08:03:55.571Z,100012.00
2019-04-01T08:14:40.663Z,99932.00
2019-04-01T08:25:22.329Z,99784.00
2019-04-01T08:36:07.355Z,99715.00
2019-04-01T08:46:53.514Z,99648.00
2019-04-01T08:57:38.321Z,99579.00
2019-04-01T09:08:23.789Z,99483.00
2019-04-01T09:19:07.052Z,99402.00
2019-04-01T09:29:51.535Z,99354.00
2019-04-01T09:40:35.886Z,99251.00
2019-04-01T09:51:20.475Z,99156.00
2019-04-01T10:02:04.176Z,99033.00
2019-04-01T10:12:49.283Z,98960.00
2019-04-01T10:23:35.747Z,98861.00
2019-04-01T10:34:20.573Z,98742.00
2019-04-01T10:45:03.191Z,98688.00
2019-04-01T10:55:46.971Z,98639.00
2019-04-01T11:06:27.581Z,98585.00
2019-04-01T11:17:09.800Z,98498.00
2019-04-01T11:27:51.197Z,98451.00
2019-04-01T11:38:34.139Z,98433.00
2019-04-01T11:49:15.506Z,98319.00
2019-04-01T11:59:56.970Z,98295.00
2019-04-01T12:10:39.303Z,98096.00
2019-04-01T12:21:22.598Z,97985.00
2019-04-01T12:32:03.086Z,97914.00
2019-04-01T12:42:50.623Z,97788.00
2019-04-01T12:53:30.326Z,97807.00
2019-04-01T13:04:05.911Z,97671.00
2019-04-01T13:14:48.082Z,97549.00
2019-04-01T13:25:20.451Z,97495.00
2019-04-01T13:36:01.627Z,97429.00
2019-04-01T13:46:41.591Z,97484.00
2019-04-01T13:57:24.216Z,97318.00
2019-04-01T14:08:07.206Z,97326.00
2019-04-01T14:18:46.280Z,97295.00
2019-04-01T14:29:26.025Z,97338.00
2019-04-01T14:40:03.144Z,97234.00
2019-04-01T14:50:34.257Z,97140.00
2019-04-01T15:01:17.717Z,97103.00
2019-04-01T15:11:53.691Z,97101.00
2019-04-01T15:22:37.826Z,97108.00
2019-04-01T15:33:23.800Z,97118.00
2019-04-01T15:44:05.982Z,97111.00
2019-04-01T15:54:49.009Z,97118.00
2019-04-01T16:05:32.095Z,97381.00
2019-04-01T16:16:14.415Z,97281.00
2019-04-01T16:26:56.407Z,97231.00
2019-04-01T16:37:40.018Z,97269.00
2019-04-01T16:48:22.447Z,97275.00
2019-04-01T16:59:07.019Z,97309.00
2019-04-01T17:09:49.097Z,97441.00
2019-04-01T17:20:32.011Z,97487.00
2019-04-01T17:31:15.474Z,97602.00
2019-04-01T17:41:56.643Z,97654.00
2019-04-01T17:52:36.992Z,97738.00
2019-04-01T18:03:10.714Z,97779.00
2019-04-01T18:13:52.943Z,97795.00
2019-04-01T18:24:31.287Z,97903.00
2019-04-01T18:35:04.376Z,98063.00
2019-04-01T18:45:45.636Z,98128.00
2019-04-01T18:56:24.768Z,98188.00
2019-04-01T19:07:04.421Z,98277.00
2019-04-01T19:17:44.952Z,98353.00
2019-04-01T19:28:25.804Z,98409.00
2019-04-01T19:39:05.890Z,98454.00
2019-04-01T19:49:39.967Z,98516.00
2019-04-01T20:00:27.749Z,98563.00
2019-04-01T20:11:01.702Z,98586.00
2019-04-01T20:21:40.503Z,98596.00
2019-04-01T20:32:17.579Z,98614.00
2019-04-01T20:42:56.092Z,98658.00
2019-04-01T20:53:32.719Z,98660.00
2019-04-01T21:04:13.100Z,98656.00
2019-04-01T21:14:55.954Z,98630.00
2019-04-01T21:25:35.624Z,98627.00
2019-04-01T21:36:10.680Z,98622.00
2019-04-01T21:46:53.915Z,98619.00
2019-04-01T21:57:32.176Z,98628.00
2019-04-01T22:08:11.283Z,98657.00
2019-04-01T22:18:55.178Z,98687.00
2019-04-01T22:29:39.707Z,98728.00
2019-04-01T22:40:23.149Z,98735.00
2019-04-01T22:51:08.429Z,98743.00
2019-04-01T23:01:49.865Z,98776.00
2019-04-01T23:12:33.206Z,98783.00
2019-04-01T23:23:17.246Z,98766.00
2019-04-01T23:34:01.632Z,98742.00
2019-04-01T23:44:43.301Z,98739.00
2019-04-01T23:55:27.113Z,98723.00
